Time;durP1;ratioP1;P1;durP2;ratioP2;P2;SDS_P1;SDS_P2;PMS_P1;PMS_P2;Temp;Humidity;BMP_temperature;BMP_pressure;BME280_temperature;BME280_humidity;BME280_pressure;Samples;Min_cycle;Max_cycle;Signal;HPM_P1;HPM_P2
2022/09/13 00:00:34;;;;;;;8.98;5.50;;;12.30;99.90;;;;;;4992070;28;20382;-84
2022/09/13 00:03:01;;;;;;;8.60;5.32;;;12.20;99.90;;;;;;4991142;28;20030;-85
2022/09/13 00:05:27;;;;;;;9.38;5.82;;;12.20;99.90;;;;;;4991437;28;20038;-84
2022/09/13 00:07:53;;;;;;;7.22;5.63;;;12.20;99.90;;;;;;4991257;28;20230;-84
2022/09/13 00:10:19;;;;;;;9.65;6.10;;;12.10;99.90;;;;;;4991466;28;20030;-85
2022/09/13 00:16:33;;;;;;;7.28;5.55;;;11.90;99.90;;;;;;4996788;28;20041;-85
2022/09/13 00:18:59;;;;;;;8.85;6.20;;;11.90;99.90;;;;;;4995348;28;20038;-84
2022/09/13 00:21:26;;;;;;;9.65;6.20;;;11.80;99.90;;;;;;4994920;28;20035;-84
2022/09/13 00:23:53;;;;;;;8.23;6.80;;;11.70;99.90;;;;;;4994689;28;20127;-85
2022/09/13 00:26:25;;;;;;;9.45;6.78;;;11.70;99.90;;;;;;4977890;28;20031;-84
2022/09/13 00:28:53;;;;;;;9.63;6.53;;;11.60;99.90;;;;;;4994138;28;20027;-85
2022/09/13 00:31:19;;;;;;;10.18;8.00;;;11.50;99.90;;;;;;4994134;28;20529;-85
2022/09/13 00:33:46;;;;;;;9.20;6.63;;;11.60;99.90;;;;;;4994072;28;20054;-85
2022/09/13 00:36:12;;;;;;;12.00;7.35;;;11.50;99.90;;;;;;4994293;28;20061;-85
2022/09/13 00:38:38;;;;;;;9.18;6.88;;;11.50;99.90;;;;;;4994091;28;20073;-84
2022/09/13 00:41:07;;;;;;;9.38;6.32;;;11.50;99.90;;;;;;4970297;28;20425;-84
2022/09/13 00:44:00;;;;;;;9.07;6.43;;;11.40;99.90;;;;;;4993809;28;20035;-85
2022/09/13 00:46:46;;;;;;;11.55;6.93;;;11.40;99.90;;;;;;4991587;28;20097;-84
2022/09/13 00:49:34;;;;;;;11.13;7.18;;;11.30;99.90;;;;;;4996321;28;20026;-84
2022/09/13 00:52:06;;;;;;;12.63;7.00;;;11.30;99.90;;;;;;5010218;28;20029;-85
2022/09/13 00:54:41;;;;;;;13.23;8.13;;;11.30;99.90;;;;;;4994164;28;20030;-84
2022/09/13 00:57:10;;;;;;;13.65;8.80;;;11.30;99.90;;;;;;4994132;28;20046;-85
2022/09/13 00:59:46;;;;;;;12.18;9.18;;;11.30;99.90;;;;;;4993871;28;20049;-85
2022/09/13 01:02:14;;;;;;;16.35;8.65;;;11.30;99.90;;;;;;4994861;28;20381;-85
2022/09/13 01:04:40;;;;;;;11.95;7.97;;;11.40;99.90;;;;;;4993598;28;20026;-84
2022/09/13 01:07:11;;;;;;;14.60;8.25;;;11.50;99.90;;;;;;4993614;28;20022;-84
2022/09/13 01:09:40;;;;;;;9.07;6.82;;;11.40;99.90;;;;;;4993628;28;20126;-85
2022/09/13 01:12:09;;;;;;;10.57;7.18;;;11.40;99.90;;;;;;4975401;28;20046;-85
2022/09/13 01:14:35;;;;;;;10.65;7.03;;;11.40;99.90;;;;;;4977210;28;20097;-85
2022/09/13 01:17:02;;;;;;;10.23;6.95;;;11.40;99.90;;;;;;5005802;28;20065;-85
2022/09/13 01:19:28;;;;;;;8.25;6.50;;;11.40;99.90;;;;;;4993270;28;20057;-84
2022/09/13 01:21:53;;;;;;;9.68;8.00;;;11.40;99.90;;;;;;4994588;28;20027;-85
2022/09/13 01:25:05;;;;;;;12.15;9.38;;;11.40;99.90;;;;;;4995005;28;20074;-85
2022/09/13 01:28:00;;;;;;;9.98;7.65;;;11.50;99.90;;;;;;5006614;28;20034;-85
2022/09/13 01:30:46;;;;;;;11.82;8.55;;;11.50;99.90;;;;;;4987930;28;20045;-84
2022/09/13 01:33:23;;;;;;;9.98;7.90;;;11.50;99.90;;;;;;4975833;28;20038;-84
2022/09/13 01:36:07;;;;;;;13.27;7.75;;;11.50;99.90;;;;;;4992970;28;20037;-85
2022/09/13 01:38:44;;;;;;;10.43;7.93;;;11.60;99.90;;;;;;4993158;28;20080;-84
2022/09/13 01:41:32;;;;;;;11.45;7.70;;;11.50;99.90;;;;;;4976932;28;20056;-84
2022/09/13 01:44:28;;;;;;;13.32;7.55;;;11.50;99.90;;;;;;5008320;28;20026;-84
2022/09/13 01:47:18;;;;;;;10.10;7.47;;;11.50;99.90;;;;;;4964742;28;20069;-84
2022/09/13 01:50:11;;;;;;;9.27;6.38;;;11.50;99.90;;;;;;4989528;28;20049;-85
2022/09/13 01:52:56;;;;;;;13.00;7.25;;;11.40;99.90;;;;;;4983512;28;20046;-84
2022/09/13 01:55:29;;;;;;;14.30;6.63;;;11.20;99.90;;;;;;4992421;28;20038;-85
2022/09/13 01:58:24;;;;;;;8.23;6.63;;;11.20;99.90;;;;;;4992621;28;20484;-84
2022/09/13 02:01:25;;;;;;;10.43;6.15;;;11.10;99.90;;;;;;4975701;28;20026;-85
2022/09/13 02:04:05;;;;;;;12.50;7.47;;;11.10;99.90;;;;;;4989207;28;20045;-85
2022/09/13 02:06:44;;;;;;;10.65;7.00;;;11.10;99.90;;;;;;4984929;28;20030;-85
2022/09/13 02:09:18;;;;;;;10.07;7.55;;;11.00;99.90;;;;;;4991749;28;20118;-85
2022/09/13 02:11:49;;;;;;;10.85;8.23;;;10.90;99.90;;;;;;4990939;28;20091;-84
2022/09/13 02:14:20;;;;;;;13.23;8.50;;;10.90;99.90;;;;;;4991756;28;20030;-84
2022/09/13 02:16:49;;;;;;;;;;;10.80;99.90;;;;;;4992660;28;20414;-84
2022/09/13 02:19:35;;;;;;;11.60;8.20;;;10.80;99.90;;;;;;4992251;28;19918;-85
2022/09/13 02:22:04;;;;;;;14.13;8.68;;;10.70;99.90;;;;;;4975977;28;20061;-84
2022/09/13 02:24:39;;;;;;;12.18;7.65;;;10.70;99.90;;;;;;4991762;28;20769;-85
2022/09/13 02:27:13;;;;;;;14.73;8.90;;;10.70;99.90;;;;;;4988142;28;20038;-85
2022/09/13 02:29:43;;;;;;;12.13;8.65;;;10.70;99.90;;;;;;4992304;28;20034;-84
2022/09/13 02:32:21;;;;;;;13.88;9.38;;;10.60;99.90;;;;;;4992253;28;20053;-85
2022/09/13 02:34:56;;;;;;;14.50;10.15;;;10.60;99.90;;;;;;4991704;28;20688;-84
2022/09/13 02:37:26;;;;;;;13.68;10.10;;;10.60;99.90;;;;;;4992123;28;20169;-85
2022/09/13 02:39:58;;;;;;;14.05;9.80;;;10.70;99.90;;;;;;4992227;28;20859;-85
2022/09/13 02:42:46;;;;;;;13.73;9.95;;;10.70;99.90;;;;;;4986618;28;20128;-85
2022/09/13 02:45:39;;;;;;;13.38;9.05;;;10.80;99.90;;;;;;4991925;28;20113;-84
2022/09/13 02:48:15;;;;;;;13.48;8.90;;;10.70;99.90;;;;;;4990534;28;20455;-84
2022/09/13 02:50:57;;;;;;;13.25;8.88;;;10.70;99.90;;;;;;4991815;28;20560;-85
2022/09/13 02:53:26;;;;;;;20.38;8.68;;;10.70;99.90;;;;;;4987049;28;20034;-84
2022/09/13 02:56:17;;;;;;;15.70;8.52;;;10.70;99.90;;;;;;5006501;28;20029;-85
2022/09/13 02:58:49;;;;;;;11.97;9.17;;;10.60;99.90;;;;;;4992438;28;20129;-84
2022/09/13 03:01:15;;;;;;;14.88;10.18;;;10.60;99.90;;;;;;4991183;28;20030;-85
2022/09/13 03:03:42;;;;;;;20.63;11.10;;;10.50;99.90;;;;;;4991366;28;20033;-85
2022/09/13 03:06:08;;;;;;;20.70;11.20;;;10.60;99.90;;;;;;4986471;28;20022;-84
2022/09/13 03:08:35;;;;;;;15.95;10.20;;;10.50;99.90;;;;;;4974673;28;20042;-85
2022/09/13 03:11:26;;;;;;;17.63;10.82;;;10.50;99.90;;;;;;4991323;28;20478;-85
2022/09/13 03:14:16;;;;;;;16.42;9.75;;;10.50;99.90;;;;;;4988350;28;20031;-84
2022/09/13 03:16:45;;;;;;;18.80;10.07;;;10.50;99.90;;;;;;4991202;28;20065;-84
2022/09/13 03:19:37;;;;;;;19.02;10.52;;;10.40;99.90;;;;;;4984430;28;20700;-85
2022/09/13 03:22:12;;;;;;;17.15;10.35;;;10.40;99.90;;;;;;4984623;28;20054;-85
2022/09/13 03:25:02;;;;;;;15.18;9.35;;;10.40;99.90;;;;;;4991579;28;20029;-84
2022/09/13 03:28:02;;;;;;;14.75;10.13;;;10.30;99.90;;;;;;4994589;28;20066;-85
2022/09/13 03:30:31;;;;;;;12.55;8.23;;;10.40;99.90;;;;;;4975723;28;20045;-84
2022/09/13 03:32:57;;;;;;;11.85;9.30;;;10.30;99.90;;;;;;4991799;28;20109;-85
2022/09/13 03:35:47;;;;;;;12.93;9.35;;;10.30;99.90;;;;;;4975574;28;20180;-85
2022/09/13 03:38:40;;;;;;;14.82;9.45;;;10.30;99.90;;;;;;4975148;28;20058;-85
2022/09/13 03:41:18;;;;;;;14.50;9.88;;;10.30;99.90;;;;;;4975461;28;20070;-85
2022/09/13 03:43:53;;;;;;;13.82;9.23;;;10.40;99.90;;;;;;4991313;28;20039;-85
2022/09/13 03:46:55;;;;;;;14.02;9.13;;;10.40;99.90;;;;;;4991819;28;20033;-85
2022/09/13 03:49:23;;;;;;;14.43;8.27;;;10.40;99.90;;;;;;4976299;28;20056;-84
2022/09/13 03:51:51;;;;;;;15.35;9.00;;;10.40;99.90;;;;;;4994757;28;20115;-85
2022/09/13 03:54:27;;;;;;;14.55;9.95;;;10.40;99.90;;;;;;4994873;28;20374;-85
2022/09/13 03:57:07;;;;;;;15.70;9.60;;;10.50;99.90;;;;;;4995061;28;20045;-85
2022/09/13 03:59:35;;;;;;;12.98;9.40;;;10.50;99.90;;;;;;4995391;28;20035;-84
2022/09/13 04:02:02;;;;;;;16.23;9.30;;;10.50;99.90;;;;;;4994791;28;20015;-84
2022/09/13 04:04:28;;;;;;;15.02;8.60;;;10.60;99.90;;;;;;4978648;28;20803;-85
2022/09/13 04:06:55;;;;;;;15.60;9.40;;;10.60;99.90;;;;;;4995143;28;20037;-85
2022/09/13 04:09:21;;;;;;;13.70;8.98;;;10.60;99.90;;;;;;4995293;28;20124;-84
2022/09/13 04:11:47;;;;;;;15.73;9.68;;;10.70;99.90;;;;;;4995241;28;20038;-85
2022/09/13 04:14:14;;;;;;;14.48;9.23;;;10.70;99.90;;;;;;4994739;28;20053;-84
2022/09/13 04:16:41;;;;;;;12.30;9.20;;;10.80;99.90;;;;;;4994711;28;20401;-85
2022/09/13 04:19:06;;;;;;;17.13;9.23;;;10.90;99.90;;;;;;4994869;28;20030;-85
2022/09/13 04:21:32;;;;;;;13.57;9.40;;;10.90;99.90;;;;;;4994984;28;20510;-84
2022/09/13 04:23:58;;;;;;;16.08;7.85;;;11.00;99.90;;;;;;4994137;28;20038;-85
2022/09/13 04:26:23;;;;;;;10.38;7.85;;;10.90;99.90;;;;;;4978380;28;20029;-85
2022/09/13 04:28:51;;;;;;;10.75;7.60;;;11.00;99.90;;;;;;4995802;28;20544;-85
2022/09/13 04:31:16;;;;;;;15.30;8.88;;;11.00;99.90;;;;;;4994326;28;20050;-85
2022/09/13 04:33:42;;;;;;;14.27;9.15;;;11.00;99.90;;;;;;4994378;28;20037;-84
2022/09/13 04:36:08;;;;;;;13.80;8.40;;;11.00;99.90;;;;;;4994333;28;20054;-85
2022/09/13 04:38:33;;;;;;;11.52;8.48;;;11.00;99.90;;;;;;4994098;28;20035;-85
2022/09/13 04:40:59;;;;;;;10.90;8.80;;;11.10;99.90;;;;;;4993706;28;20026;-85
2022/09/13 04:43:25;;;;;;;14.23;8.85;;;11.10;99.90;;;;;;4993668;28;20038;-84
2022/09/13 04:45:51;;;;;;;13.30;7.95;;;11.10;99.90;;;;;;4994114;28;20038;-85
2022/09/13 04:48:19;;;;;;;10.88;8.52;;;11.10;99.90;;;;;;4994327;28;20092;-84
2022/09/13 04:50:46;;;;;;;9.90;7.25;;;11.10;99.90;;;;;;4982979;28;20084;-85
2022/09/13 04:53:12;;;;;;;9.65;7.38;;;11.10;99.90;;;;;;4993882;28;20096;-84
2022/09/13 04:55:38;;;;;;;11.65;6.90;;;11.20;99.90;;;;;;4993865;28;20034;-85
2022/09/13 04:58:04;;;;;;;12.57;7.22;;;11.20;99.90;;;;;;4984062;28;20033;-85
2022/09/13 05:00:30;;;;;;;10.25;7.43;;;11.20;99.90;;;;;;4992218;28;20034;-87
2022/09/13 05:02:56;;;;;;;14.45;10.20;;;11.30;99.90;;;;;;4997797;28;20034;-87
2022/09/13 05:05:24;;;;;;;15.75;11.02;;;11.30;99.90;;;;;;5002217;28;20033;-88
2022/09/13 05:07:51;;;;;;;16.08;9.52;;;11.40;99.90;;;;;;4994618;28;20045;-88
2022/09/13 05:10:17;;;;;;;15.20;9.57;;;11.40;99.90;;;;;;4994464;28;20482;-88
2022/09/13 05:12:43;;;;;;;16.77;9.15;;;11.50;99.90;;;;;;5004874;28;20036;-88
2022/09/13 05:15:09;;;;;;;13.18;8.90;;;11.50;99.90;;;;;;4994311;28;20113;-88
2022/09/13 05:17:35;;;;;;;15.63;7.88;;;11.50;99.90;;;;;;4994253;28;20073;-87
2022/09/13 05:20:01;;;;;;;11.15;7.90;;;11.50;99.90;;;;;;4994103;28;20481;-87
2022/09/13 05:22:26;;;;;;;12.63;7.43;;;11.50;99.90;;;;;;4994040;28;20482;-87
2022/09/13 05:24:52;;;;;;;10.93;6.93;;;11.60;99.90;;;;;;4993914;28;20109;-88
2022/09/13 05:27:18;;;;;;;15.70;8.32;;;11.60;99.90;;;;;;4993878;28;20034;-87
2022/09/13 05:29:43;;;;;;;12.98;7.25;;;11.70;99.90;;;;;;5001094;28;20390;-87
2022/09/13 05:32:09;;;;;;;15.18;8.85;;;11.80;99.90;;;;;;4993062;28;20056;-88
2022/09/13 05:34:35;;;;;;;10.45;7.60;;;11.90;99.90;;;;;;5008200;28;20371;-87
2022/09/13 05:37:00;;;;;;;17.23;7.20;;;11.90;99.90;;;;;;4993881;28;20030;-87
2022/09/13 05:39:26;;;;;;;10.48;7.97;;;12.10;99.90;;;;;;4988459;28;20038;-87
2022/09/13 05:41:52;;;;;;;14.70;8.38;;;12.10;99.90;;;;;;4974123;28;20469;-87
2022/09/13 05:44:18;;;;;;;9.82;6.80;;;12.10;99.90;;;;;;4974979;28;20038;-88
2022/09/13 05:46:47;;;;;;;11.05;7.47;;;12.20;99.90;;;;;;4993716;28;20038;-88
2022/09/13 05:49:13;;;;;;;10.60;7.20;;;12.30;99.90;;;;;;4993462;28;20045;-87
2022/09/13 05:51:39;;;;;;;12.60;6.90;;;12.40;99.90;;;;;;4991909;28;20478;-87
2022/09/13 05:54:04;;;;;;;10.23;6.82;;;12.40;99.90;;;;;;4993554;28;20030;-88
2022/09/13 05:56:31;;;;;;;9.70;6.63;;;12.60;99.90;;;;;;4992620;28;20030;-87
2022/09/13 05:58:57;;;;;;;8.98;6.15;;;12.70;99.90;;;;;;4977096;28;20084;-87
2022/09/13 06:01:27;;;;;;;11.55;7.53;;;12.80;99.90;;;;;;4992794;28;20034;-88
2022/09/13 06:03:57;;;;;;;13.93;7.05;;;13.00;99.90;;;;;;4992761;28;20026;-88
2022/09/13 06:06:24;;;;;;;13.70;6.78;;;13.10;99.90;;;;;;4979816;28;20112;-88
2022/09/13 06:08:54;;;;;;;9.82;7.10;;;13.30;99.90;;;;;;4993786;28;20022;-88
2022/09/13 06:11:20;;;;;;;10.00;6.93;;;13.50;99.90;;;;;;4992571;28;20058;-88
2022/09/13 06:13:46;;;;;;;19.88;6.15;;;13.60;99.90;;;;;;4994555;28;20038;-88
2022/09/13 06:16:12;;;;;;;13.02;5.78;;;13.80;99.90;;;;;;4969744;28;20077;-88
2022/09/13 06:18:39;;;;;;;15.40;6.05;;;13.90;99.90;;;;;;4969554;28;20035;-88
2022/09/13 06:21:18;;;;;;;9.02;6.07;;;14.10;99.90;;;;;;4991366;28;20490;-88
2022/09/13 06:23:49;;;;;;;11.25;6.20;;;14.20;99.90;;;;;;4975537;28;20402;-88
2022/09/13 06:26:18;;;;;;;15.52;6.10;;;14.40;99.90;;;;;;4992476;28;20689;-88
2022/09/13 06:28:50;;;;;;;9.50;5.95;;;14.50;99.90;;;;;;5001598;28;20034;-88
2022/09/13 06:31:18;;;;;;;8.88;5.60;;;14.70;99.90;;;;;;4990059;28;20310;-88
2022/09/13 06:33:44;;;;;;;14.70;5.25;;;14.90;99.90;;;;;;4990692;28;20490;-88
2022/09/13 06:36:13;;;;;;;20.05;6.00;;;15.10;99.90;;;;;;4975265;28;20437;-88
2022/09/13 06:38:39;;;;;;;15.40;6.25;;;15.20;99.90;;;;;;4992133;28;20064;-88
2022/09/13 06:41:11;;;;;;;12.32;5.28;;;15.40;99.90;;;;;;4992269;28;20038;-87
2022/09/13 06:43:37;;;;;;;11.90;5.20;;;15.60;99.90;;;;;;4992375;28;20037;-87
2022/09/13 06:46:12;;;;;;;10.30;6.30;;;15.90;99.90;;;;;;4976220;28;20030;-89
2022/09/13 06:48:39;;;;;;;10.55;5.47;;;16.20;99.90;;;;;;4991861;28;20034;-88
2022/09/13 06:51:16;;;;;;;13.68;5.15;;;16.40;99.90;;;;;;5008454;28;20038;-88
2022/09/13 06:53:44;;;;;;;21.23;6.82;;;16.70;99.90;;;;;;4989547;28;20029;-88
2022/09/13 06:56:15;;;;;;;9.10;4.55;;;17.00;99.90;;;;;;4988956;28;20030;-88
2022/09/13 06:58:43;;;;;;;12.70;6.38;;;17.30;99.90;;;;;;5014664;28;20540;-88
2022/09/13 07:01:18;;;;;;;6.72;4.53;;;17.50;99.90;;;;;;4994512;28;20113;-87
2022/09/13 07:03:52;;;;;;;6.95;4.70;;;17.50;99.90;;;;;;5007413;28;20393;-88
2022/09/13 07:06:23;;;;;;;7.47;3.42;;;17.50;99.90;;;;;;4993813;28;20034;-88
2022/09/13 07:12:40;;;;;;;4.80;3.50;;;17.70;99.90;;;;;;4990702;28;20041;-88
2022/09/13 07:15:06;;;;;;;7.75;4.18;;;17.70;99.90;;;;;;4986167;28;20022;-88
2022/09/13 07:17:32;;;;;;;4.85;4.20;;;17.80;99.90;;;;;;4992216;28;20081;-88
2022/09/13 07:19:57;;;;;;;6.45;4.20;;;17.90;99.90;;;;;;4992047;28;20061;-88
2022/09/13 07:22:26;;;;;;;6.60;4.65;;;18.00;99.90;;;;;;4991496;28;20026;-88
2022/09/13 07:24:52;;;;;;;6.30;4.55;;;18.20;99.90;;;;;;4975769;28;20022;-88
2022/09/13 07:27:18;;;;;;;5.88;5.05;;;18.30;99.90;;;;;;4992392;28;20031;-88
2022/09/13 07:29:44;;;;;;;6.45;4.43;;;18.40;99.90;;;;;;5008521;28;20037;-88
2022/09/13 07:32:09;;;;;;;6.97;4.40;;;18.60;99.90;;;;;;4992610;28;20045;-88
2022/09/13 07:34:35;;;;;;;9.30;4.35;;;18.80;99.90;;;;;;4991847;28;20042;-88
2022/09/13 07:37:01;;;;;;;5.20;4.25;;;18.90;99.90;;;;;;4976379;28;20026;-89
2022/09/13 07:39:26;;;;;;;6.18;4.22;;;19.00;99.90;;;;;;4992432;28;20030;-87
2022/09/13 07:41:52;;;;;;;5.70;4.65;;;19.10;99.90;;;;;;4992329;28;20049;-88
2022/09/13 07:44:21;;;;;;;5.13;4.30;;;19.10;99.90;;;;;;4991965;28;20070;-89
2022/09/13 07:46:49;;;;;;;7.50;3.95;;;19.30;99.90;;;;;;4992098;28;20033;-88
2022/09/13 07:49:18;;;;;;;5.93;4.10;;;19.50;99.90;;;;;;4991824;28;20045;-88
2022/09/13 07:51:44;;;;;;;7.35;4.78;;;19.70;99.90;;;;;;4991529;28;20058;-88
2022/09/13 07:54:13;;;;;;;5.30;3.63;;;19.80;99.90;;;;;;4991422;28;20033;-88
2022/09/13 07:56:40;;;;;;;5.45;4.55;;;19.80;99.90;;;;;;4974784;28;20138;-88
2022/09/13 07:59:11;;;;;;;8.27;4.80;;;19.90;99.90;;;;;;4992025;28;20285;-89
2022/09/13 08:01:39;;;;;;;4.50;4.10;;;19.90;99.90;;;;;;5007779;28;20058;-88
2022/09/13 08:04:11;;;;;;;7.82;4.53;;;19.90;99.90;;;;;;4991878;28;20089;-88
2022/09/13 08:06:37;;;;;;;;;;;20.10;99.90;;;;;;4992484;28;20031;-88
2022/09/13 08:09:04;;;;;;;4.57;3.95;;;20.20;99.90;;;;;;4975287;28;19914;-88
2022/09/13 08:11:33;;;;;;;7.70;4.13;;;20.40;99.90;;;;;;4991950;28;20479;-88
2022/09/13 08:13:59;;;;;;;6.20;4.03;;;20.40;99.90;;;;;;4975461;28;20093;-89
2022/09/13 08:16:26;;;;;;;6.97;3.83;;;20.50;99.90;;;;;;4991797;28;20095;-89
2022/09/13 08:18:54;;;;;;;7.93;4.40;;;20.60;99.90;;;;;;4991776;28;20065;-89
2022/09/13 08:21:20;;;;;;;5.65;4.53;;;20.50;99.90;;;;;;4991897;28;20462;-88
2022/09/13 08:23:47;;;;;;;4.32;3.63;;;20.40;99.90;;;;;;4991884;28;20042;-88
2022/09/13 08:26:13;;;;;;;9.70;4.50;;;20.30;99.90;;;;;;4992105;28;20026;-88
2022/09/13 08:28:40;;;;;;;4.22;3.83;;;20.20;99.90;;;;;;4992464;28;20035;-88
2022/09/13 08:31:09;;;;;;;4.82;3.70;;;20.40;99.90;;;;;;4991390;28;20488;-88
2022/09/13 08:33:36;;;;;;;7.80;4.20;;;20.40;99.90;;;;;;4992640;28;20433;-88
2022/09/13 08:36:03;;;;;;;7.10;4.00;;;20.50;99.90;;;;;;5012062;28;20041;-88
2022/09/13 08:38:29;;;;;;;5.90;3.72;;;20.70;99.90;;;;;;4995227;28;20429;-88
2022/09/13 08:41:36;;;;;;;5.80;3.83;;;21.00;99.90;;;;;;4994833;28;20030;-88
2022/09/13 08:44:28;;;;;;;5.85;4.15;;;21.40;99.90;;;;;;4958221;28;20046;-87
2022/09/13 08:47:47;;;;;;;4.60;3.22;;;21.90;99.90;;;;;;4958568;28;20026;-89
2022/09/13 08:50:21;;;;;;;4.30;3.67;;;22.20;99.90;;;;;;4939066;28;20035;-88
2022/09/13 08:52:54;;;;;;;4.63;3.55;;;22.80;99.90;;;;;;4946004;28;20118;-89
2022/09/13 08:55:26;;;;;;;4.55;3.80;;;22.90;99.90;;;;;;4965576;28;20039;-88
2022/09/13 08:58:24;;;;;;;4.18;3.05;;;23.10;99.90;;;;;;4994613;28;20416;-88
2022/09/13 09:00:58;;;;;;;6.30;3.10;;;23.30;99.90;;;;;;4976481;28;20031;-88
2022/09/13 09:03:45;;;;;;;6.28;3.17;;;23.70;99.90;;;;;;5008307;28;20029;-89
2022/09/13 09:06:14;;;;;;;4.85;2.88;;;23.90;99.90;;;;;;4971242;28;20064;-88
2022/09/13 09:08:53;;;;;;;3.65;2.78;;;23.90;99.90;;;;;;5011461;28;20755;-88
2022/09/13 09:11:30;;;;;;;11.45;2.58;;;23.80;99.90;;;;;;4988801;28;20030;-87
2022/09/13 09:14:16;;;;;;;9.20;2.97;;;23.40;99.90;;;;;;4978229;28;20035;-88
2022/09/13 09:16:50;;;;;;;11.18;3.38;;;23.50;99.90;;;;;;4994380;28;20121;-87
2022/09/13 09:19:26;;;;;;;7.55;4.32;;;23.30;99.90;;;;;;4994334;28;20112;-88
2022/09/13 09:22:18;;;;;;;9.40;4.45;;;22.50;99.90;;;;;;4993568;28;20037;-88
2022/09/13 09:24:49;;;;;;;5.55;4.30;;;22.20;99.90;;;;;;4993673;28;20470;-88
2022/09/13 09:27:17;;;;;;;6.18;4.18;;;22.10;99.90;;;;;;4993615;28;20092;-87
2022/09/13 09:29:49;;;;;;;7.03;3.65;;;22.30;99.90;;;;;;4977427;28;20100;-88
2022/09/13 09:32:18;;;;;;;5.78;4.03;;;22.40;99.90;;;;;;4995169;28;20478;-88
2022/09/13 09:35:16;;;;;;;7.68;3.80;;;22.70;99.90;;;;;;4976721;28;20029;-87
2022/09/13 09:37:51;;;;;;;7.78;3.90;;;23.00;99.90;;;;;;4993824;28;20038;-88
2022/09/13 09:40:16;;;;;;;3.22;2.92;;;23.10;99.90;;;;;;4993752;28;20321;-88
2022/09/13 09:42:47;;;;;;;5.57;3.00;;;23.30;99.90;;;;;;4977772;28;20032;-88
2022/09/13 09:45:32;;;;;;;;;;;23.60;99.90;;;;;;4993761;28;20022;-88
2022/09/13 09:48:04;;;;;;;6.18;3.08;;;24.00;99.90;;;;;;4993921;28;19940;-88
2022/09/13 09:50:35;;;;;;;4.63;3.10;;;24.40;99.90;;;;;;4994338;28;20568;-87
2022/09/13 09:53:25;;;;;;;3.10;2.70;;;24.60;99.90;;;;;;4994130;28;20034;-88
2022/09/13 09:56:18;;;;;;;3.60;3.30;;;25.10;99.90;;;;;;4996617;28;20030;-88
2022/09/13 09:58:45;;;;;;;3.35;2.83;;;26.00;99.90;;;;;;4993868;28;20073;-88
2022/09/13 10:01:27;;;;;;;4.97;2.90;;;26.20;99.90;;;;;;4993606;28;20026;-88
2022/09/13 10:04:03;;;;;;;3.45;2.50;;;26.20;99.90;;;;;;4993185;28;20118;-89
2022/09/13 10:06:30;;;;;;;3.13;2.60;;;26.10;99.90;;;;;;4993863;28;20026;-88
2022/09/13 10:09:02;;;;;;;4.40;2.90;;;25.80;99.90;;;;;;4993381;28;20116;-88
2022/09/13 10:11:54;;;;;;;4.40;3.15;;;25.70;99.90;;;;;;4993822;28;20124;-88
2022/09/13 10:14:38;;;;;;;7.68;3.38;;;25.40;99.90;;;;;;4974979;28;20065;-89
2022/09/13 10:17:23;;;;;;;10.85;3.22;;;25.40;99.90;;;;;;4986148;28;20050;-88
2022/09/13 10:19:58;;;;;;;4.25;3.40;;;25.30;99.90;;;;;;4975148;28;20129;-89
2022/09/13 10:22:27;;;;;;;9.20;3.58;;;24.70;99.90;;;;;;4976769;28;20031;-88
2022/09/13 10:24:53;;;;;;;3.97;3.58;;;24.10;99.90;;;;;;4992877;28;20022;-88
2022/09/13 10:27:46;;;;;;;6.93;4.05;;;23.40;99.90;;;;;;4992742;28;20041;-88
2022/09/13 10:30:34;;;;;;;4.57;3.70;;;23.00;99.90;;;;;;4985524;28;20030;-88
2022/09/13 10:33:01;;;;;;;4.88;3.35;;;22.60;99.90;;;;;;4993175;28;20033;-89
2022/09/13 10:35:28;;;;;;;4.93;4.00;;;22.60;99.90;;;;;;4994098;28;20088;-88
2022/09/13 10:37:54;;;;;;;6.32;3.55;;;22.90;99.90;;;;;;4992902;28;20037;-89
2022/09/13 10:40:57;;;;;;;4.57;3.15;;;23.10;99.90;;;;;;4993036;28;20378;-88
2022/09/13 10:43:38;;;;;;;4.78;3.47;;;23.40;99.90;;;;;;4986600;28;20037;-88
2022/09/13 10:46:08;;;;;;;7.32;3.38;;;23.70;99.90;;;;;;4971281;28;20022;-88
2022/09/13 10:48:45;;;;;;;5.38;3.47;;;24.50;99.90;;;;;;4976650;28;20449;-88
2022/09/13 10:51:35;;;;;;;4.43;3.40;;;25.30;99.90;;;;;;5014929;28;20030;-89
2022/09/13 10:54:22;;;;;;;6.93;3.80;;;25.40;99.90;;;;;;4992698;28;20069;-88
2022/09/13 10:56:50;;;;;;;4.10;3.45;;;25.40;99.90;;;;;;4989489;28;20034;-89
2022/09/13 10:59:30;;;;;;;5.68;3.92;;;25.10;99.90;;;;;;4991864;28;20030;-88
2022/09/13 11:02:24;;;;;;;4.72;2.90;;;25.20;99.90;;;;;;4993054;28;20121;-88
2022/09/13 11:05:36;;;;;;;6.63;3.58;;;25.30;99.90;;;;;;4999760;28;20031;-89
2022/09/13 11:08:14;;;;;;;3.67;2.80;;;25.40;99.90;;;;;;4993569;28;20501;-88
2022/09/13 11:11:01;;;;;;;11.10;3.58;;;25.30;99.90;;;;;;4979448;28;20034;-89
2022/09/13 11:14:04;;;;;;;5.20;3.95;;;25.10;99.90;;;;;;4995196;28;20122;-89
2022/09/13 11:16:44;;;;;;;5.05;3.60;;;24.70;99.90;;;;;;4993855;28;20068;-88
2022/09/13 11:19:56;;;;;;;8.55;3.83;;;24.10;99.90;;;;;;4975988;28;20030;-88
2022/09/13 11:22:31;;;;;;;7.30;4.10;;;23.70;99.90;;;;;;4978593;28;20034;-88
2022/09/13 11:25:05;;;;;;;10.30;3.92;;;23.40;99.90;;;;;;4988413;28;20027;-88
2022/09/13 11:28:02;;;;;;;10.57;3.33;;;23.30;99.90;;;;;;4972309;28;20043;-88
2022/09/13 11:30:36;;;;;;;6.63;4.15;;;23.30;99.90;;;;;;4982451;28;20772;-88
2022/09/13 11:33:25;;;;;;;8.23;4.28;;;23.30;99.90;;;;;;4974909;28;20509;-88
2022/09/13 11:36:12;;;;;;;5.88;3.38;;;23.60;99.90;;;;;;4991731;28;20034;-89
2022/09/13 11:39:07;;;;;;;9.18;4.00;;;23.80;99.90;;;;;;4986235;28;20034;-89
2022/09/13 11:41:58;;;;;;;8.18;3.78;;;23.90;99.90;;;;;;4984165;28;20043;-88
2022/09/13 11:44:48;;;;;;;9.98;3.47;;;23.90;99.90;;;;;;4986267;28;20109;-88
2022/09/13 11:48:01;;;;;;;7.43;3.00;;;24.10;99.90;;;;;;4991226;28;20045;-88
2022/09/13 11:50:48;;;;;;;6.35;3.97;;;24.00;99.90;;;;;;4936257;29;20035;-88
2022/09/13 11:53:36;;;;;;;7.82;3.70;;;23.70;99.90;;;;;;4955428;28;20058;-88
2022/09/13 11:56:22;;;;;;;3.70;3.35;;;23.30;99.90;;;;;;4998907;28;20042;-88
2022/09/13 11:59:26;;;;;;;14.27;3.90;;;22.90;99.90;;;;;;4991970;28;20482;-88
2022/09/13 12:01:56;;;;;;;7.25;3.88;;;22.40;99.90;;;;;;4975265;28;20034;-88
2022/09/13 12:04:46;;;;;;;7.00;4.07;;;22.10;99.90;;;;;;4977546;28;20026;-88
2022/09/13 12:07:24;;;;;;;5.32;3.17;;;21.80;99.90;;;;;;4985798;28;20034;-88
2022/09/13 12:10:01;;;;;;;4.50;3.55;;;21.80;99.90;;;;;;4994637;28;20030;-88
2022/09/13 12:12:32;;;;;;;6.72;3.90;;;21.80;99.90;;;;;;4992222;28;20125;-88
2022/09/13 12:15:18;;;;;;;9.15;4.03;;;21.90;99.90;;;;;;4995550;28;20041;-88
2022/09/13 12:18:13;;;;;;;6.30;3.72;;;22.00;99.90;;;;;;4994135;28;20778;-88
2022/09/13 12:20:46;;;;;;;5.20;3.88;;;22.20;99.90;;;;;;4990779;28;20069;-87
2022/09/13 12:23:19;;;;;;;6.30;3.90;;;22.20;99.90;;;;;;4999535;28;20034;-88
2022/09/13 12:26:03;;;;;;;7.93;4.20;;;22.00;99.90;;;;;;5004587;28;20036;-88
2022/09/13 12:28:43;;;;;;;6.20;3.72;;;21.90;99.90;;;;;;4996688;28;20117;-88
2022/09/13 12:31:18;;;;;;;6.60;3.85;;;21.60;99.90;;;;;;5011709;28;20556;-88
2022/09/13 12:33:44;;;;;;;6.32;3.45;;;21.50;99.90;;;;;;4992546;28;20117;-88
2022/09/13 12:36:39;;;;;;;4.35;3.50;;;21.20;99.90;;;;;;4994014;28;20105;-88
2022/09/13 12:39:39;;;;;;;7.63;3.95;;;20.90;99.90;;;;;;4987330;28;20034;-89
2022/09/13 12:42:17;;;;;;;13.65;4.55;;;20.60;99.90;;;;;;4989284;28;20023;-88
2022/09/13 12:45:15;;;;;;;8.30;5.07;;;20.40;99.90;;;;;;4994552;28;20478;-87
2022/09/13 12:47:47;;;;;;;8.00;4.30;;;20.30;99.90;;;;;;4993255;28;20035;-88
2022/09/13 12:50:43;;;;;;;4.63;4.07;;;20.20;99.90;;;;;;4988513;28;20033;-88
2022/09/13 12:53:31;;;;;;;7.13;4.50;;;20.20;99.90;;;;;;4995784;28;20031;-88
2022/09/13 12:56:18;;;;;;;5.00;4.15;;;20.30;99.90;;;;;;4979041;28;20041;-88
2022/09/13 12:59:09;;;;;;;6.05;4.40;;;20.50;99.90;;;;;;4994368;28;20033;-88
2022/09/13 13:01:36;;;;;;;5.55;3.90;;;20.60;99.90;;;;;;4999671;28;20023;-88
2022/09/13 13:04:26;;;;;;;5.55;3.88;;;20.60;99.90;;;;;;4998347;28;20032;-87
2022/09/13 13:07:17;;;;;;;8.77;4.50;;;20.70;99.90;;;;;;4996175;28;20027;-88
2022/09/13 13:09:52;;;;;;;6.50;4.00;;;20.70;99.90;;;;;;4997008;28;20037;-87
2022/09/13 13:12:34;;;;;;;13.05;4.15;;;20.90;99.90;;;;;;4994793;28;20030;-88
2022/09/13 13:15:03;;;;;;;6.07;3.85;;;21.00;99.90;;;;;;4994715;28;20033;-88
2022/09/13 13:17:37;;;;;;;5.07;3.72;;;21.20;99.90;;;;;;4995714;28;20114;-88
2022/09/13 13:20:37;;;;;;;7.82;4.53;;;21.20;99.90;;;;;;4977597;28;20029;-88
2022/09/13 13:23:30;;;;;;;5.70;5.00;;;21.10;99.90;;;;;;4995628;28;20105;-88
2022/09/13 13:25:55;;;;;;;8.90;5.20;;;20.90;99.90;;;;;;4994578;28;20039;-87
2022/09/13 13:28:46;;;;;;;6.38;4.45;;;20.80;99.90;;;;;;4994185;28;20034;-88
2022/09/13 13:31:25;;;;;;;10.98;4.35;;;20.80;99.90;;;;;;4971341;28;20441;-88